Terminal Aerodrome Forecast
Issued by NWS Mt. Holly, NJ

Home | Current Version | Previous Version | Text Only | Print | Product List | Glossary On
Versions: 1 2 3 4 5 6 7 8 9 10 11 12 13 14 15 16 17 18
000
FTAK31 PANC 121723
TAFABE
TAF
PABE 121723Z 1218/1318 06008KT P6SM SCT035 BKN080
     FM130000 12010KT P6SM -SHRA BKN025 OVC040
     FM130500 12013KT P6SM VCSH BKN040
     FM131300 15007KT P6SM OVC035=

USA.gov is the U.S. government's official web portal to all federal, state and local government web resources and services.